sensor_id;sensor_type;location;lat;lon;timestamp;P1;durP1;ratioP1;P2;durP2;ratioP2
76292;SDS011;67256;51.154;4.164;2023-10-08T00:01:03;8.98;;;3.13;;
76292;SDS011;67256;51.154;4.164;2023-10-08T00:03:31;6.95;;;2.85;;
76292;SDS011;67256;51.154;4.164;2023-10-08T00:05:58;7.10;;;2.80;;
76292;SDS011;67256;51.154;4.164;2023-10-08T00:08:32;7.07;;;3.20;;
76292;SDS011;67256;51.154;4.164;2023-10-08T00:10:59;8.25;;;2.80;;
76292;SDS011;67256;51.154;4.164;2023-10-08T00:13:31;5.30;;;2.70;;
76292;SDS011;67256;51.154;4.164;2023-10-08T00:16:04;14.10;;;3.22;;
76292;SDS011;67256;51.154;4.164;2023-10-08T00:18:34;6.18;;;3.22;;
76292;SDS011;67256;51.154;4.164;2023-10-08T00:21:01;13.18;;;3.28;;
76292;SDS011;67256;51.154;4.164;2023-10-08T00:23:42;9.80;;;3.17;;
76292;SDS011;67256;51.154;4.164;2023-10-08T00:26:13;9.00;;;3.20;;
76292;SDS011;67256;51.154;4.164;2023-10-08T00:28:43;7.85;;;3.28;;
76292;SDS011;67256;51.154;4.164;2023-10-08T00:31:13;5.90;;;3.10;;
76292;SDS011;67256;51.154;4.164;2023-10-08T00:33:42;5.97;;;3.33;;
76292;SDS011;67256;51.154;4.164;2023-10-08T00:36:09;11.43;;;3.33;;
76292;SDS011;67256;51.154;4.164;2023-10-08T00:38:49;9.63;;;3.63;;
76292;SDS011;67256;51.154;4.164;2023-10-08T00:41:25;8.05;;;3.00;;
76292;SDS011;67256;51.154;4.164;2023-10-08T00:43:55;6.50;;;3.25;;
76292;SDS011;67256;51.154;4.164;2023-10-08T00:46:24;9.23;;;3.43;;
76292;SDS011;67256;51.154;4.164;2023-10-08T00:48:56;8.90;;;3.33;;
76292;SDS011;67256;51.154;4.164;2023-10-08T00:51:24;7.82;;;3.50;;
76292;SDS011;67256;51.154;4.164;2023-10-08T00:53:56;11.27;;;3.47;;
76292;SDS011;67256;51.154;4.164;2023-10-08T00:56:32;7.55;;;3.20;;
76292;SDS011;67256;51.154;4.164;2023-10-08T00:59:11;7.88;;;3.20;;
76292;SDS011;67256;51.154;4.164;2023-10-08T01:01:41;7.90;;;3.47;;
76292;SDS011;67256;51.154;4.164;2023-10-08T01:04:16;8.48;;;3.42;;
76292;SDS011;67256;51.154;4.164;2023-10-08T01:06:42;13.93;;;3.50;;
76292;SDS011;67256;51.154;4.164;2023-10-08T01:09:09;7.35;;;3.00;;
76292;SDS011;67256;51.154;4.164;2023-10-08T01:11:50;8.95;;;4.53;;
76292;SDS011;67256;51.154;4.164;2023-10-08T01:14:36;8.18;;;3.30;;
76292;SDS011;67256;51.154;4.164;2023-10-08T01:17:02;9.52;;;3.92;;
76292;SDS011;67256;51.154;4.164;2023-10-08T01:19:31;9.57;;;3.97;;
76292;SDS011;67256;51.154;4.164;2023-10-08T01:22:03;9.13;;;3.28;;
76292;SDS011;67256;51.154;4.164;2023-10-08T01:24:32;10.75;;;4.03;;
76292;SDS011;67256;51.154;4.164;2023-10-08T01:26:59;11.27;;;3.63;;
76292;SDS011;67256;51.154;4.164;2023-10-08T01:29:29;9.40;;;3.42;;
76292;SDS011;67256;51.154;4.164;2023-10-08T01:31:56;7.00;;;3.13;;
76292;SDS011;67256;51.154;4.164;2023-10-08T01:34:22;8.68;;;3.50;;
76292;SDS011;67256;51.154;4.164;2023-10-08T01:37:01;8.95;;;4.18;;
76292;SDS011;67256;51.154;4.164;2023-10-08T01:39:33;8.60;;;3.47;;
76292;SDS011;67256;51.154;4.164;2023-10-08T01:42:03;7.72;;;3.38;;
76292;SDS011;67256;51.154;4.164;2023-10-08T01:44:30;13.35;;;4.10;;
76292;SDS011;67256;51.154;4.164;2023-10-08T01:46:58;11.45;;;4.18;;
76292;SDS011;67256;51.154;4.164;2023-10-08T01:49:24;10.27;;;4.18;;
76292;SDS011;67256;51.154;4.164;2023-10-08T01:51:57;12.05;;;3.63;;
76292;SDS011;67256;51.154;4.164;2023-10-08T01:54:23;8.57;;;3.70;;
76292;SDS011;67256;51.154;4.164;2023-10-08T01:56:51;8.38;;;3.60;;
76292;SDS011;67256;51.154;4.164;2023-10-08T01:59:17;11.27;;;4.03;;
76292;SDS011;67256;51.154;4.164;2023-10-08T02:01:43;6.60;;;3.20;;
76292;SDS011;67256;51.154;4.164;2023-10-08T02:04:10;12.43;;;3.75;;
76292;SDS011;67256;51.154;4.164;2023-10-08T02:06:37;10.38;;;3.97;;
76292;SDS011;67256;51.154;4.164;2023-10-08T02:09:06;9.98;;;4.10;;
76292;SDS011;67256;51.154;4.164;2023-10-08T02:11:56;8.52;;;4.38;;
76292;SDS011;67256;51.154;4.164;2023-10-08T02:14:25;10.70;;;4.22;;
76292;SDS011;67256;51.154;4.164;2023-10-08T02:16:55;11.20;;;4.65;;
76292;SDS011;67256;51.154;4.164;2023-10-08T02:19:24;9.05;;;4.25;;
76292;SDS011;67256;51.154;4.164;2023-10-08T02:21:53;13.77;;;3.95;;
76292;SDS011;67256;51.154;4.164;2023-10-08T02:24:20;7.50;;;3.78;;
76292;SDS011;67256;51.154;4.164;2023-10-08T02:26:47;11.10;;;3.78;;
76292;SDS011;67256;51.154;4.164;2023-10-08T02:29:13;9.10;;;4.35;;
76292;SDS011;67256;51.154;4.164;2023-10-08T02:31:40;12.25;;;3.70;;
76292;SDS011;67256;51.154;4.164;2023-10-08T02:34:06;9.43;;;4.13;;
76292;SDS011;67256;51.154;4.164;2023-10-08T02:36:37;10.43;;;4.25;;
76292;SDS011;67256;51.154;4.164;2023-10-08T02:39:06;10.27;;;3.40;;
76292;SDS011;67256;51.154;4.164;2023-10-08T02:41:51;11.32;;;4.40;;
76292;SDS011;67256;51.154;4.164;2023-10-08T02:44:18;12.43;;;4.45;;
76292;SDS011;67256;51.154;4.164;2023-10-08T02:46:46;10.77;;;4.68;;
76292;SDS011;67256;51.154;4.164;2023-10-08T02:49:13;8.93;;;4.25;;
76292;SDS011;67256;51.154;4.164;2023-10-08T02:51:48;12.88;;;3.92;;
76292;SDS011;67256;51.154;4.164;2023-10-08T02:54:19;9.60;;;3.75;;
76292;SDS011;67256;51.154;4.164;2023-10-08T02:56:51;16.30;;;4.72;;
76292;SDS011;67256;51.154;4.164;2023-10-08T02:59:22;9.35;;;4.50;;
76292;SDS011;67256;51.154;4.164;2023-10-08T03:01:49;12.63;;;4.95;;
76292;SDS011;67256;51.154;4.164;2023-10-08T03:04:21;9.25;;;4.47;;
76292;SDS011;67256;51.154;4.164;2023-10-08T03:06:48;13.02;;;4.28;;
76292;SDS011;67256;51.154;4.164;2023-10-08T03:09:21;11.65;;;4.82;;
76292;SDS011;67256;51.154;4.164;2023-10-08T03:11:56;9.70;;;4.30;;
76292;SDS011;67256;51.154;4.164;2023-10-08T03:14:23;13.38;;;4.65;;
76292;SDS011;67256;51.154;4.164;2023-10-08T03:16:52;11.18;;;4.22;;
76292;SDS011;67256;51.154;4.164;2023-10-08T03:19:23;12.55;;;4.80;;
76292;SDS011;67256;51.154;4.164;2023-10-08T03:21:50;9.25;;;4.78;;
76292;SDS011;67256;51.154;4.164;2023-10-08T03:24:19;12.40;;;4.43;;
76292;SDS011;67256;51.154;4.164;2023-10-08T03:26:59;12.70;;;4.68;;
76292;SDS011;67256;51.154;4.164;2023-10-08T03:29:35;8.07;;;3.88;;
76292;SDS011;67256;51.154;4.164;2023-10-08T03:32:08;11.68;;;5.10;;
76292;SDS011;67256;51.154;4.164;2023-10-08T03:34:39;12.85;;;4.57;;
76292;SDS011;67256;51.154;4.164;2023-10-08T03:37:08;11.15;;;5.25;;
76292;SDS011;67256;51.154;4.164;2023-10-08T03:39:35;16.65;;;5.13;;
76292;SDS011;67256;51.154;4.164;2023-10-08T03:42:20;10.27;;;4.40;;
76292;SDS011;67256;51.154;4.164;2023-10-08T03:44:52;7.75;;;4.38;;
76292;SDS011;67256;51.154;4.164;2023-10-08T03:47:24;12.32;;;5.53;;
76292;SDS011;67256;51.154;4.164;2023-10-08T03:49:54;9.68;;;5.00;;
76292;SDS011;67256;51.154;4.164;2023-10-08T03:52:20;9.65;;;4.78;;
76292;SDS011;67256;51.154;4.164;2023-10-08T03:54:49;10.60;;;4.43;;
76292;SDS011;67256;51.154;4.164;2023-10-08T03:57:29;12.35;;;5.25;;
76292;SDS011;67256;51.154;4.164;2023-10-08T04:00:06;10.02;;;4.45;;
76292;SDS011;67256;51.154;4.164;2023-10-08T04:02:38;10.88;;;4.40;;
76292;SDS011;67256;51.154;4.164;2023-10-08T04:05:11;12.35;;;4.78;;
76292;SDS011;67256;51.154;4.164;2023-10-08T04:07:48;9.88;;;5.32;;
76292;SDS011;67256;51.154;4.164;2023-10-08T04:10:23;13.45;;;5.38;;
76292;SDS011;67256;51.154;4.164;2023-10-08T04:13:24;12.82;;;5.47;;
76292;SDS011;67256;51.154;4.164;2023-10-08T04:15:50;14.80;;;5.75;;
76292;SDS011;67256;51.154;4.164;2023-10-08T04:18:16;10.40;;;5.22;;
76292;SDS011;67256;51.154;4.164;2023-10-08T04:20:45;12.48;;;5.40;;
76292;SDS011;67256;51.154;4.164;2023-10-08T04:23:29;18.83;;;5.72;;
76292;SDS011;67256;51.154;4.164;2023-10-08T04:25:55;11.77;;;5.18;;
76292;SDS011;67256;51.154;4.164;2023-10-08T04:28:22;13.88;;;5.43;;
76292;SDS011;67256;51.154;4.164;2023-10-08T04:30:53;12.30;;;5.30;;
76292;SDS011;67256;51.154;4.164;2023-10-08T04:33:25;11.85;;;5.32;;
76292;SDS011;67256;51.154;4.164;2023-10-08T04:35:55;9.93;;;5.60;;
76292;SDS011;67256;51.154;4.164;2023-10-08T04:38:22;14.77;;;5.50;;
76292;SDS011;67256;51.154;4.164;2023-10-08T04:40:53;10.15;;;6.13;;
76292;SDS011;67256;51.154;4.164;2023-10-08T04:43:22;12.85;;;5.35;;
76292;SDS011;67256;51.154;4.164;2023-10-08T04:45:59;12.63;;;4.80;;
76292;SDS011;67256;51.154;4.164;2023-10-08T04:48:30;13.15;;;5.53;;
76292;SDS011;67256;51.154;4.164;2023-10-08T04:51:02;12.70;;;5.30;;
76292;SDS011;67256;51.154;4.164;2023-10-08T04:53:32;9.65;;;5.47;;
76292;SDS011;67256;51.154;4.164;2023-10-08T04:56:05;11.15;;;5.88;;
76292;SDS011;67256;51.154;4.164;2023-10-08T04:58:38;11.60;;;5.72;;
76292;SDS011;67256;51.154;4.164;2023-10-08T05:01:07;14.63;;;5.40;;
76292;SDS011;67256;51.154;4.164;2023-10-08T05:03:49;11.48;;;5.57;;
76292;SDS011;67256;51.154;4.164;2023-10-08T05:06:36;11.15;;;5.25;;
76292;SDS011;67256;51.154;4.164;2023-10-08T05:09:12;14.52;;;5.32;;
76292;SDS011;67256;51.154;4.164;2023-10-08T05:11:45;11.23;;;5.18;;
76292;SDS011;67256;51.154;4.164;2023-10-08T05:14:31;14.07;;;5.95;;
76292;SDS011;67256;51.154;4.164;2023-10-08T05:16:57;8.10;;;5.28;;
76292;SDS011;67256;51.154;4.164;2023-10-08T05:19:35;10.65;;;5.15;;
76292;SDS011;67256;51.154;4.164;2023-10-08T05:22:16;11.98;;;5.13;;
76292;SDS011;67256;51.154;4.164;2023-10-08T05:25:02;11.15;;;5.47;;
76292;SDS011;67256;51.154;4.164;2023-10-08T05:27:42;11.20;;;6.22;;
76292;SDS011;67256;51.154;4.164;2023-10-08T05:30:14;14.18;;;6.00;;
76292;SDS011;67256;51.154;4.164;2023-10-08T05:33:02;10.32;;;4.95;;
76292;SDS011;67256;51.154;4.164;2023-10-08T05:35:37;16.58;;;5.70;;
76292;SDS011;67256;51.154;4.164;2023-10-08T05:38:07;12.43;;;6.10;;
76292;SDS011;67256;51.154;4.164;2023-10-08T05:40:45;8.98;;;5.00;;
76292;SDS011;67256;51.154;4.164;2023-10-08T05:43:23;15.73;;;5.78;;
76292;SDS011;67256;51.154;4.164;2023-10-08T05:46:06;14.95;;;6.32;;
76292;SDS011;67256;51.154;4.164;2023-10-08T05:48:48;14.68;;;5.50;;
76292;SDS011;67256;51.154;4.164;2023-10-08T05:51:37;15.52;;;5.90;;
76292;SDS011;67256;51.154;4.164;2023-10-08T05:57:04;13.38;;;5.88;;
76292;SDS011;67256;51.154;4.164;2023-10-08T05:59:46;13.98;;;5.97;;
76292;SDS011;67256;51.154;4.164;2023-10-08T06:04:58;13.80;;;6.05;;
76292;SDS011;67256;51.154;4.164;2023-10-08T06:07:44;13.20;;;6.18;;
76292;SDS011;67256;51.154;4.164;2023-10-08T06:10:20;11.20;;;6.30;;
76292;SDS011;67256;51.154;4.164;2023-10-08T06:13:06;11.80;;;5.93;;
76292;SDS011;67256;51.154;4.164;2023-10-08T06:15:51;13.43;;;5.95;;
76292;SDS011;67256;51.154;4.164;2023-10-08T06:18:22;15.00;;;6.25;;
76292;SDS011;67256;51.154;4.164;2023-10-08T06:23:20;11.63;;;5.70;;
76292;SDS011;67256;51.154;4.164;2023-10-08T06:25:48;13.50;;;6.97;;
76292;SDS011;67256;51.154;4.164;2023-10-08T06:28:33;14.40;;;6.07;;
76292;SDS011;67256;51.154;4.164;2023-10-08T06:31:01;12.45;;;6.13;;
76292;SDS011;67256;51.154;4.164;2023-10-08T06:33:39;13.50;;;6.57;;
76292;SDS011;67256;51.154;4.164;2023-10-08T06:36:06;9.32;;;5.78;;
76292;SDS011;67256;51.154;4.164;2023-10-08T06:38:38;14.20;;;6.18;;
76292;SDS011;67256;51.154;4.164;2023-10-08T06:41:06;9.85;;;5.88;;
76292;SDS011;67256;51.154;4.164;2023-10-08T06:43:45;13.60;;;6.55;;
76292;SDS011;67256;51.154;4.164;2023-10-08T06:46:27;12.48;;;6.13;;
76292;SDS011;67256;51.154;4.164;2023-10-08T06:49:01;11.88;;;6.55;;
76292;SDS011;67256;51.154;4.164;2023-10-08T06:51:29;11.52;;;5.32;;
76292;SDS011;67256;51.154;4.164;2023-10-08T06:53:57;11.23;;;5.78;;
76292;SDS011;67256;51.154;4.164;2023-10-08T06:56:27;9.45;;;4.85;;
76292;SDS011;67256;51.154;4.164;2023-10-08T06:58:53;11.20;;;5.07;;
76292;SDS011;67256;51.154;4.164;2023-10-08T07:01:19;11.75;;;5.90;;
76292;SDS011;67256;51.154;4.164;2023-10-08T07:03:54;15.20;;;5.63;;
76292;SDS011;67256;51.154;4.164;2023-10-08T07:06:28;14.13;;;6.82;;
76292;SDS011;67256;51.154;4.164;2023-10-08T07:09:02;14.00;;;5.60;;
76292;SDS011;67256;51.154;4.164;2023-10-08T07:11:34;9.38;;;5.20;;
76292;SDS011;67256;51.154;4.164;2023-10-08T07:14:02;9.52;;;5.95;;
76292;SDS011;67256;51.154;4.164;2023-10-08T07:16:29;10.23;;;5.88;;
76292;SDS011;67256;51.154;4.164;2023-10-08T07:18:58;10.52;;;5.78;;
76292;SDS011;67256;51.154;4.164;2023-10-08T07:21:30;15.35;;;5.97;;
76292;SDS011;67256;51.154;4.164;2023-10-08T07:24:10;11.70;;;6.13;;
76292;SDS011;67256;51.154;4.164;2023-10-08T07:26:42;9.82;;;5.32;;
76292;SDS011;67256;51.154;4.164;2023-10-08T07:29:12;11.13;;;6.07;;
76292;SDS011;67256;51.154;4.164;2023-10-08T07:31:42;17.02;;;6.78;;
76292;SDS011;67256;51.154;4.164;2023-10-08T07:34:17;15.93;;;7.68;;
76292;SDS011;67256;51.154;4.164;2023-10-08T07:36:47;17.80;;;6.45;;
76292;SDS011;67256;51.154;4.164;2023-10-08T07:39:16;12.70;;;6.10;;
76292;SDS011;67256;51.154;4.164;2023-10-08T07:42:00;13.90;;;6.40;;
76292;SDS011;67256;51.154;4.164;2023-10-08T07:44:30;15.85;;;7.00;;
76292;SDS011;67256;51.154;4.164;2023-10-08T07:46:56;10.93;;;6.50;;
76292;SDS011;67256;51.154;4.164;2023-10-08T07:49:26;16.70;;;6.68;;
76292;SDS011;67256;51.154;4.164;2023-10-08T07:51:56;15.82;;;6.97;;
76292;SDS011;67256;51.154;4.164;2023-10-08T07:54:24;20.55;;;6.93;;
76292;SDS011;67256;51.154;4.164;2023-10-08T07:56:53;10.63;;;6.03;;
76292;SDS011;67256;51.154;4.164;2023-10-08T07:59:33;15.95;;;6.93;;
76292;SDS011;67256;51.154;4.164;2023-10-08T08:02:12;14.30;;;7.57;;
76292;SDS011;67256;51.154;4.164;2023-10-08T08:04:42;15.13;;;7.35;;
76292;SDS011;67256;51.154;4.164;2023-10-08T08:07:10;14.32;;;7.07;;
76292;SDS011;67256;51.154;4.164;2023-10-08T08:09:46;12.77;;;6.82;;
76292;SDS011;67256;51.154;4.164;2023-10-08T08:12:23;13.65;;;6.80;;
76292;SDS011;67256;51.154;4.164;2023-10-08T08:14:53;18.85;;;7.45;;
76292;SDS011;67256;51.154;4.164;2023-10-08T08:17:22;17.00;;;7.22;;
76292;SDS011;67256;51.154;4.164;2023-10-08T08:19:49;14.68;;;6.90;;
76292;SDS011;67256;51.154;4.164;2023-10-08T08:22:18;12.00;;;6.40;;
76292;SDS011;67256;51.154;4.164;2023-10-08T08:24:53;13.70;;;7.00;;
76292;SDS011;67256;51.154;4.164;2023-10-08T08:27:24;14.57;;;7.85;;
76292;SDS011;67256;51.154;4.164;2023-10-08T08:30:00;15.93;;;6.88;;
76292;SDS011;67256;51.154;4.164;2023-10-08T08:32:39;20.38;;;7.90;;
76292;SDS011;67256;51.154;4.164;2023-10-08T08:35:06;18.63;;;7.18;;
76292;SDS011;67256;51.154;4.164;2023-10-08T08:37:33;14.57;;;7.07;;
76292;SDS011;67256;51.154;4.164;2023-10-08T08:40:01;19.35;;;7.72;;
76292;SDS011;67256;51.154;4.164;2023-10-08T08:42:33;13.90;;;6.53;;
76292;SDS011;67256;51.154;4.164;2023-10-08T08:45:05;15.40;;;7.88;;
76292;SDS011;67256;51.154;4.164;2023-10-08T08:47:37;16.65;;;8.30;;
76292;SDS011;67256;51.154;4.164;2023-10-08T08:50:06;18.10;;;7.53;;
76292;SDS011;67256;51.154;4.164;2023-10-08T08:52:36;16.58;;;7.85;;
76292;SDS011;67256;51.154;4.164;2023-10-08T08:55:06;16.52;;;7.95;;
76292;SDS011;67256;51.154;4.164;2023-10-08T08:57:39;13.80;;;7.25;;
76292;SDS011;67256;51.154;4.164;2023-10-08T09:00:14;18.27;;;7.50;;
76292;SDS011;67256;51.154;4.164;2023-10-08T09:02:44;15.90;;;8.00;;
76292;SDS011;67256;51.154;4.164;2023-10-08T09:05:12;17.52;;;8.40;;
76292;SDS011;67256;51.154;4.164;2023-10-08T09:08:01;20.52;;;7.95;;
76292;SDS011;67256;51.154;4.164;2023-10-08T09:10:29;15.52;;;7.78;;
76292;SDS011;67256;51.154;4.164;2023-10-08T09:13:02;23.67;;;7.13;;
76292;SDS011;67256;51.154;4.164;2023-10-08T09:15:29;24.48;;;9.10;;
76292;SDS011;67256;51.154;4.164;2023-10-08T09:17:57;20.63;;;8.27;;
76292;SDS011;67256;51.154;4.164;2023-10-08T09:20:26;16.33;;;8.57;;
76292;SDS011;67256;51.154;4.164;2023-10-08T09:23:06;21.17;;;8.50;;
76292;SDS011;67256;51.154;4.164;2023-10-08T09:25:36;16.20;;;8.82;;
76292;SDS011;67256;51.154;4.164;2023-10-08T09:28:02;20.13;;;8.32;;
76292;SDS011;67256;51.154;4.164;2023-10-08T09:30:32;17.05;;;8.10;;
76292;SDS011;67256;51.154;4.164;2023-10-08T09:33:09;17.95;;;9.57;;
76292;SDS011;67256;51.154;4.164;2023-10-08T09:35:38;17.70;;;8.32;;
76292;SDS011;67256;51.154;4.164;2023-10-08T09:38:07;20.80;;;8.48;;
76292;SDS011;67256;51.154;4.164;2023-10-08T09:40:35;16.17;;;8.88;;
76292;SDS011;67256;51.154;4.164;2023-10-08T09:43:11;18.40;;;7.85;;
76292;SDS011;67256;51.154;4.164;2023-10-08T09:45:38;15.90;;;7.80;;
76292;SDS011;67256;51.154;4.164;2023-10-08T09:48:10;15.95;;;8.75;;
76292;SDS011;67256;51.154;4.164;2023-10-08T09:50:38;16.42;;;8.52;;
76292;SDS011;67256;51.154;4.164;2023-10-08T09:53:12;12.73;;;8.15;;
76292;SDS011;67256;51.154;4.164;2023-10-08T09:55:45;19.88;;;9.75;;
76292;SDS011;67256;51.154;4.164;2023-10-08T09:58:19;20.90;;;8.80;;
76292;SDS011;67256;51.154;4.164;2023-10-08T10:00:51;23.17;;;9.75;;
76292;SDS011;67256;51.154;4.164;2023-10-08T10:03:19;17.65;;;8.73;;
76292;SDS011;67256;51.154;4.164;2023-10-08T10:05:50;19.38;;;9.20;;
76292;SDS011;67256;51.154;4.164;2023-10-08T10:08:17;17.67;;;9.25;;
76292;SDS011;67256;51.154;4.164;2023-10-08T10:10:45;20.60;;;9.38;;
76292;SDS011;67256;51.154;4.164;2023-10-08T10:13:13;20.33;;;9.35;;
76292;SDS011;67256;51.154;4.164;2023-10-08T10:15:44;23.27;;;10.18;;
76292;SDS011;67256;51.154;4.164;2023-10-08T10:20:52;17.42;;;8.93;;
76292;SDS011;67256;51.154;4.164;2023-10-08T10:31:43;21.70;;;9.60;;
76292;SDS011;67256;51.154;4.164;2023-10-08T10:34:14;20.05;;;9.40;;
76292;SDS011;67256;51.154;4.164;2023-10-08T10:36:42;23.40;;;9.55;;
76292;SDS011;67256;51.154;4.164;2023-10-08T10:39:10;19.38;;;9.02;;
76292;SDS011;67256;51.154;4.164;2023-10-08T10:41:43;20.75;;;9.27;;
76292;SDS011;67256;51.154;4.164;2023-10-08T10:44:13;22.30;;;9.52;;
76292;SDS011;67256;51.154;4.164;2023-10-08T10:46:42;21.60;;;8.60;;
76292;SDS011;67256;51.154;4.164;2023-10-08T10:49:16;16.27;;;9.02;;
76292;SDS011;67256;51.154;4.164;2023-10-08T10:51:56;22.67;;;9.18;;
76292;SDS011;67256;51.154;4.164;2023-10-08T10:54:26;22.25;;;9.23;;
76292;SDS011;67256;51.154;4.164;2023-10-08T10:57:01;18.17;;;8.73;;
76292;SDS011;67256;51.154;4.164;2023-10-08T10:59:30;20.80;;;9.93;;
76292;SDS011;67256;51.154;4.164;2023-10-08T11:02:17;24.67;;;9.45;;
76292;SDS011;67256;51.154;4.164;2023-10-08T11:04:55;17.13;;;8.38;;
76292;SDS011;67256;51.154;4.164;2023-10-08T11:07:32;24.35;;;8.52;;
76292;SDS011;67256;51.154;4.164;2023-10-08T11:09:59;17.42;;;8.60;;
76292;SDS011;67256;51.154;4.164;2023-10-08T11:12:25;21.60;;;8.43;;
76292;SDS011;67256;51.154;4.164;2023-10-08T11:15:08;26.08;;;9.25;;
76292;SDS011;67256;51.154;4.164;2023-10-08T11:17:41;17.85;;;7.65;;
76292;SDS011;67256;51.154;4.164;2023-10-08T11:20:23;24.08;;;8.10;;
76292;SDS011;67256;51.154;4.164;2023-10-08T11:22:54;16.30;;;8.02;;
76292;SDS011;67256;51.154;4.164;2023-10-08T11:25:21;15.80;;;7.22;;
76292;SDS011;67256;51.154;4.164;2023-10-08T11:27:50;17.52;;;8.27;;
76292;SDS011;67256;51.154;4.164;2023-10-08T11:30:24;21.33;;;9.02;;
76292;SDS011;67256;51.154;4.164;2023-10-08T11:32:55;15.73;;;7.05;;
76292;SDS011;67256;51.154;4.164;2023-10-08T11:35:22;15.77;;;7.88;;
76292;SDS011;67256;51.154;4.164;2023-10-08T11:37:48;17.58;;;8.43;;
76292;SDS011;67256;51.154;4.164;2023-10-08T11:40:24;17.70;;;7.72;;
76292;SDS011;67256;51.154;4.164;2023-10-08T11:42:54;15.35;;;6.88;;
76292;SDS011;67256;51.154;4.164;2023-10-08T11:45:24;18.17;;;7.65;;
76292;SDS011;67256;51.154;4.164;2023-10-08T11:47:52;15.95;;;6.90;;
76292;SDS011;67256;51.154;4.164;2023-10-08T11:50:27;16.75;;;6.88;;
76292;SDS011;67256;51.154;4.164;2023-10-08T11:53:00;18.23;;;7.47;;
76292;SDS011;67256;51.154;4.164;2023-10-08T11:55:31;16.30;;;7.38;;
76292;SDS011;67256;51.154;4.164;2023-10-08T11:58:02;26.02;;;8.02;;
76292;SDS011;67256;51.154;4.164;2023-10-08T12:00:38;18.30;;;8.18;;
76292;SDS011;67256;51.154;4.164;2023-10-08T12:03:11;17.40;;;7.88;;
76292;SDS011;67256;51.154;4.164;2023-10-08T12:05:38;17.38;;;7.47;;
76292;SDS011;67256;51.154;4.164;2023-10-08T12:08:13;17.60;;;7.18;;
76292;SDS011;67256;51.154;4.164;2023-10-08T12:10:43;17.45;;;9.05;;
76292;SDS011;67256;51.154;4.164;2023-10-08T12:13:11;19.40;;;7.50;;
76292;SDS011;67256;51.154;4.164;2023-10-08T12:15:37;19.92;;;7.97;;
76292;SDS011;67256;51.154;4.164;2023-10-08T12:18:09;16.33;;;7.30;;
76292;SDS011;67256;51.154;4.164;2023-10-08T12:20:51;17.13;;;7.50;;
76292;SDS011;67256;51.154;4.164;2023-10-08T12:23:19;19.42;;;7.90;;
76292;SDS011;67256;51.154;4.164;2023-10-08T12:25:54;15.40;;;7.00;;
76292;SDS011;67256;51.154;4.164;2023-10-08T12:28:23;18.80;;;9.35;;
76292;SDS011;67256;51.154;4.164;2023-10-08T12:30:49;31.17;;;14.65;;
76292;SDS011;67256;51.154;4.164;2023-10-08T12:33:20;20.48;;;10.25;;
76292;SDS011;67256;51.154;4.164;2023-10-08T12:35:49;18.73;;;7.45;;
76292;SDS011;67256;51.154;4.164;2023-10-08T12:38:21;15.50;;;7.20;;
76292;SDS011;67256;51.154;4.164;2023-10-08T12:40:53;15.30;;;7.95;;
76292;SDS011;67256;51.154;4.164;2023-10-08T12:43:23;16.85;;;8.10;;
76292;SDS011;67256;51.154;4.164;2023-10-08T12:45:53;17.10;;;7.78;;
76292;SDS011;67256;51.154;4.164;2023-10-08T12:48:20;16.23;;;7.13;;
76292;SDS011;67256;51.154;4.164;2023-10-08T12:50:52;16.65;;;7.03;;
76292;SDS011;67256;51.154;4.164;2023-10-08T12:53:21;19.73;;;7.03;;
76292;SDS011;67256;51.154;4.164;2023-10-08T12:56:05;17.80;;;6.93;;
76292;SDS011;67256;51.154;4.164;2023-10-08T12:58:36;14.23;;;7.68;;
76292;SDS011;67256;51.154;4.164;2023-10-08T13:01:07;14.88;;;7.13;;
76292;SDS011;67256;51.154;4.164;2023-10-08T13:03:35;16.95;;;7.13;;
76292;SDS011;67256;51.154;4.164;2023-10-08T13:06:06;18.45;;;7.35;;
76292;SDS011;67256;51.154;4.164;2023-10-08T13:08:36;14.48;;;6.65;;
76292;SDS011;67256;51.154;4.164;2023-10-08T13:11:02;19.42;;;7.20;;
76292;SDS011;67256;51.154;4.164;2023-10-08T13:13:29;20.27;;;7.40;;
76292;SDS011;67256;51.154;4.164;2023-10-08T13:15:55;18.23;;;7.32;;
76292;SDS011;67256;51.154;4.164;2023-10-08T13:18:24;15.52;;;7.20;;
76292;SDS011;67256;51.154;4.164;2023-10-08T13:20:52;18.02;;;7.32;;
76292;SDS011;67256;51.154;4.164;2023-10-08T13:23:19;15.35;;;6.70;;
76292;SDS011;67256;51.154;4.164;2023-10-08T13:25:48;15.60;;;6.63;;
76292;SDS011;67256;51.154;4.164;2023-10-08T13:28:23;16.13;;;6.57;;
76292;SDS011;67256;51.154;4.164;2023-10-08T13:30:53;19.55;;;7.30;;
76292;SDS011;67256;51.154;4.164;2023-10-08T13:33:22;12.40;;;6.35;;
76292;SDS011;67256;51.154;4.164;2023-10-08T13:35:48;15.43;;;6.72;;
76292;SDS011;67256;51.154;4.164;2023-10-08T13:38:17;14.27;;;6.50;;
76292;SDS011;67256;51.154;4.164;2023-10-08T13:40:47;19.33;;;7.72;;
76292;SDS011;67256;51.154;4.164;2023-10-08T13:43:39;16.38;;;6.50;;
76292;SDS011;67256;51.154;4.164;2023-10-08T13:46:19;17.38;;;6.60;;
76292;SDS011;67256;51.154;4.164;2023-10-08T13:48:48;14.68;;;6.70;;
76292;SDS011;67256;51.154;4.164;2023-10-08T13:51:16;15.93;;;6.10;;
76292;SDS011;67256;51.154;4.164;2023-10-08T13:53:56;16.33;;;7.10;;
76292;SDS011;67256;51.154;4.164;2023-10-08T13:56:25;13.73;;;6.40;;
76292;SDS011;67256;51.154;4.164;2023-10-08T13:58:53;13.65;;;6.50;;
76292;SDS011;67256;51.154;4.164;2023-10-08T14:01:31;16.80;;;6.00;;
76292;SDS011;67256;51.154;4.164;2023-10-08T14:03:59;12.13;;;6.40;;
76292;SDS011;67256;51.154;4.164;2023-10-08T14:06:32;14.98;;;6.97;;
76292;SDS011;67256;51.154;4.164;2023-10-08T14:08:59;16.63;;;6.15;;
76292;SDS011;67256;51.154;4.164;2023-10-08T14:11:26;17.63;;;6.15;;
76292;SDS011;67256;51.154;4.164;2023-10-08T14:13:55;16.50;;;6.50;;
76292;SDS011;67256;51.154;4.164;2023-10-08T14:16:23;20.42;;;6.97;;
76292;SDS011;67256;51.154;4.164;2023-10-08T14:18:53;12.52;;;6.10;;
76292;SDS011;67256;51.154;4.164;2023-10-08T14:21:23;14.70;;;6.30;;
76292;SDS011;67256;51.154;4.164;2023-10-08T14:23:58;14.23;;;5.75;;
76292;SDS011;67256;51.154;4.164;2023-10-08T14:26:30;13.20;;;5.97;;
76292;SDS011;67256;51.154;4.164;2023-10-08T14:29:03;12.57;;;5.85;;
76292;SDS011;67256;51.154;4.164;2023-10-08T14:31:42;16.10;;;6.45;;
76292;SDS011;67256;51.154;4.164;2023-10-08T14:34:13;12.65;;;6.05;;
76292;SDS011;67256;51.154;4.164;2023-10-08T14:36:43;15.00;;;5.60;;
76292;SDS011;67256;51.154;4.164;2023-10-08T14:39:28;13.05;;;5.82;;
76292;SDS011;67256;51.154;4.164;2023-10-08T14:42:14;13.05;;;5.32;;
76292;SDS011;67256;51.154;4.164;2023-10-08T14:44:59;12.65;;;5.32;;
76292;SDS011;67256;51.154;4.164;2023-10-08T14:47:25;11.02;;;5.47;;
76292;SDS011;67256;51.154;4.164;2023-10-08T14:49:51;10.50;;;5.32;;
76292;SDS011;67256;51.154;4.164;2023-10-08T14:52:17;11.05;;;5.40;;
76292;SDS011;67256;51.154;4.164;2023-10-08T14:54:44;16.55;;;5.75;;
76292;SDS011;67256;51.154;4.164;2023-10-08T14:57:10;16.10;;;6.10;;
76292;SDS011;67256;51.154;4.164;2023-10-08T14:59:42;13.52;;;5.25;;
76292;SDS011;67256;51.154;4.164;2023-10-08T15:02:08;10.35;;;5.28;;
76292;SDS011;67256;51.154;4.164;2023-10-08T15:04:36;12.48;;;6.07;;
76292;SDS011;67256;51.154;4.164;2023-10-08T15:07:04;10.97;;;5.70;;
76292;SDS011;67256;51.154;4.164;2023-10-08T15:09:37;16.40;;;5.53;;
76292;SDS011;67256;51.154;4.164;2023-10-08T15:12:04;9.27;;;5.05;;
76292;SDS011;67256;51.154;4.164;2023-10-08T15:14:34;13.60;;;5.45;;
76292;SDS011;67256;51.154;4.164;2023-10-08T15:17:00;14.55;;;6.07;;
76292;SDS011;67256;51.154;4.164;2023-10-08T15:19:27;16.83;;;5.28;;
76292;SDS011;67256;51.154;4.164;2023-10-08T15:21:52;11.40;;;5.00;;